This is the latest recevied weather packets stored in our database for station/object DG0PX-12. If no packets are shown the sender has not sent any weather packets the latest 10 day(s).
| Time | Temp. | Humidity | Pressure | Rain* | Wind** | Luminosity | Snow |
|---|---|---|---|---|---|---|---|
| 1788039891 | 23.33° C | 58% | 949.4 hPa | - | - | - | - |
| 1788038991 | 25° C | 51% | 949.6 hPa | - | - | - | - |
| 1788038091 | 23.89° C | 56% | 949.6 hPa | - | - | - | - |
| 1788037191 | 23.89° C | 55% | 949.5 hPa | - | - | - | - |
| 1788036291 | 23.89° C | 56% | 949.4 hPa | - | - | - | - |
| 1788035391 | 24.44° C | 54% | 949.5 hPa | - | - | - | - |
| 1788034491 | 25° C | 53% | 949.5 hPa | - | - | - | - |
| 1788033591 | 23.89° C | 58% | 949.3 hPa | - | - | - | - |
| 1788032691 | 24.44° C | 54% | 949.3 hPa | - | - | - | - |
| 1788031791 | 24.44° C | 54% | 949.3 hPa | - | - | - | - |
| 1788030890 | 25° C | 52% | 949.3 hPa | - | - | - | - |
| 1788029990 | 24.44° C | 56% | 949.1 hPa | - | - | - | - |
| 1788029090 | 24.44° C | 56% | 949.1 hPa | - | - | - | - |
| 1788028190 | 25° C | 58% | 948.9 hPa | - | - | - | - |
| 1788027290 | 26.11° C | 52% | 948.7 hPa | - | - | - | - |
| 1788026390 | 27.78° C | 45% | 948.9 hPa | - | - | - | - |
| 1788025490 | 28.89° C | 41% | 949 hPa | - | - | - | - |
| 1788024590 | 29.44° C | 38% | 948.9 hPa | - | - | - | - |
| 1788023690 | 28.33° C | 41% | 948.8 hPa | - | - | - | - |
| 1788022790 | 27.22° C | 44% | 948.8 hPa | - | - | - | - |
| 1788021890 | 27.78° C | 37% | 949.1 hPa | - | - | - | - |
| 1788020990 | 29.44° C | 35% | 949.3 hPa | - | - | - | - |
| 1788020090 | 27.78° C | 34% | 949.2 hPa | - | - | - | - |
| 1788019190 | 27.78° C | 32% | 949.3 hPa | - | - | - | - |
| 1788018290 | 29.44° C | 31% | 949.4 hPa | - | - | - | - |
* Rain since midnight (hover to see other rain measurements)
** Current wind speed in m/s (hover to see current wind gust speed)